sensor_id;sensor_type;location;lat;lon;timestamp;pressure;altitude;pressure_sealevel;temperature;humidity
12178;BME280;6152;48.728;9.256;2022-09-13T00:00:57;96718.81;;;13.98;100.00
12178;BME280;6152;48.728;9.256;2022-09-13T00:03:25;96723.09;;;13.99;100.00
12178;BME280;6152;48.728;9.256;2022-09-13T00:05:51;96721.44;;;13.98;100.00
12178;BME280;6152;48.728;9.256;2022-09-13T00:08:17;96718.81;;;13.98;100.00
12178;BME280;6152;48.728;9.256;2022-09-13T00:10:44;96712.88;;;13.96;100.00
12178;BME280;6152;48.728;9.256;2022-09-13T00:13:12;96710.50;;;13.93;100.00
12178;BME280;6152;48.728;9.256;2022-09-13T00:15:46;96716.69;;;13.92;100.00
12178;BME280;6152;48.728;9.256;2022-09-13T00:18:14;96712.66;;;13.88;100.00
12178;BME280;6152;48.728;9.256;2022-09-13T00:20:41;96716.22;;;13.87;100.00
12178;BME280;6152;48.728;9.256;2022-09-13T00:23:07;96721.44;;;13.87;100.00
12178;BME280;6152;48.728;9.256;2022-09-13T00:25:33;96708.25;;;13.88;100.00
12178;BME280;6152;48.728;9.256;2022-09-13T00:27:59;96701.25;;;13.89;100.00
12178;BME280;6152;48.728;9.256;2022-09-13T00:30:26;96694.34;;;13.88;100.00
12178;BME280;6152;48.728;9.256;2022-09-13T00:32:52;96697.22;;;13.85;100.00
12178;BME280;6152;48.728;9.256;2022-09-13T00:35:18;96697.47;;;13.82;100.00
12178;BME280;6152;48.728;9.256;2022-09-13T00:37:44;96691.25;;;13.83;100.00
12178;BME280;6152;48.728;9.256;2022-09-13T00:40:11;96694.84;;;13.82;100.00
12178;BME280;6152;48.728;9.256;2022-09-13T00:42:37;96699.09;;;13.83;100.00
12178;BME280;6152;48.728;9.256;2022-09-13T00:47:46;96709.56;;;13.83;100.00
12178;BME280;6152;48.728;9.256;2022-09-13T00:50:21;96713.16;;;13.82;100.00
12178;BME280;6152;48.728;9.256;2022-09-13T00:52:58;96712.44;;;13.80;100.00
12178;BME280;6152;48.728;9.256;2022-09-13T00:55:52;96712.31;;;13.81;100.00
12178;BME280;6152;48.728;9.256;2022-09-13T00:58:21;96712.91;;;13.85;100.00
12178;BME280;6152;48.728;9.256;2022-09-13T01:00:49;96699.34;;;13.91;100.00
12178;BME280;6152;48.728;9.256;2022-09-13T01:03:17;96697.63;;;14.01;100.00
12178;BME280;6152;48.728;9.256;2022-09-13T01:05:50;96686.66;;;14.07;100.00
12178;BME280;6152;48.728;9.256;2022-09-13T01:08:18;96684.78;;;14.09;100.00
12178;BME280;6152;48.728;9.256;2022-09-13T01:10:52;96687.13;;;14.12;100.00
12178;BME280;6152;48.728;9.256;2022-09-13T01:13:22;96676.66;;;14.12;100.00
12178;BME280;6152;48.728;9.256;2022-09-13T01:15:49;96683.44;;;14.14;100.00
12178;BME280;6152;48.728;9.256;2022-09-13T01:18:15;96684.25;;;14.15;100.00
12178;BME280;6152;48.728;9.256;2022-09-13T01:23:29;96672.63;;;14.08;100.00
12178;BME280;6152;48.728;9.256;2022-09-13T01:31:33;96667.91;;;14.02;100.00
12178;BME280;6152;48.728;9.256;2022-09-13T01:36:57;96674.13;;;13.90;100.00
12178;BME280;6152;48.728;9.256;2022-09-13T01:39:47;96677.97;;;13.86;100.00
12178;BME280;6152;48.728;9.256;2022-09-13T01:45:02;96680.59;;;13.75;100.00
12178;BME280;6152;48.728;9.256;2022-09-13T01:52:53;96679.94;;;13.61;100.00
12178;BME280;6152;48.728;9.256;2022-09-13T01:58:04;96680.63;;;13.52;100.00
12178;BME280;6152;48.728;9.256;2022-09-13T02:00:40;96681.81;;;13.48;100.00
12178;BME280;6152;48.728;9.256;2022-09-13T02:03:16;96693.50;;;13.44;100.00
12178;BME280;6152;48.728;9.256;2022-09-13T02:05:50;96698.94;;;13.41;100.00
12178;BME280;6152;48.728;9.256;2022-09-13T02:08:42;96686.25;;;13.37;100.00
12178;BME280;6152;48.728;9.256;2022-09-13T02:11:15;96694.44;;;13.32;100.00
12178;BME280;6152;48.728;9.256;2022-09-13T02:13:57;96690.41;;;13.28;100.00
12178;BME280;6152;48.728;9.256;2022-09-13T02:19:05;96690.19;;;13.20;100.00
12178;BME280;6152;48.728;9.256;2022-09-13T02:21:36;96690.41;;;13.17;100.00
12178;BME280;6152;48.728;9.256;2022-09-13T02:24:10;96691.72;;;13.11;100.00
12178;BME280;6152;48.728;9.256;2022-09-13T02:26:40;96694.66;;;13.07;100.00
12178;BME280;6152;48.728;9.256;2022-09-13T02:29:11;96694.88;;;13.04;100.00
12178;BME280;6152;48.728;9.256;2022-09-13T02:31:46;96699.50;;;13.00;100.00
12178;BME280;6152;48.728;9.256;2022-09-13T02:34:22;96700.25;;;13.02;100.00
12178;BME280;6152;48.728;9.256;2022-09-13T02:36:52;96709.97;;;13.00;100.00
12178;BME280;6152;48.728;9.256;2022-09-13T02:39:24;96705.56;;;13.01;100.00
12178;BME280;6152;48.728;9.256;2022-09-13T02:57:49;96689.53;;;12.94;100.00
12178;BME280;6152;48.728;9.256;2022-09-13T03:00:17;96687.88;;;12.93;100.00
12178;BME280;6152;48.728;9.256;2022-09-13T03:02:45;96697.50;;;12.93;100.00
12178;BME280;6152;48.728;9.256;2022-09-13T03:05:12;96697.72;;;12.90;100.00
12178;BME280;6152;48.728;9.256;2022-09-13T03:07:38;96707.38;;;12.89;100.00
12178;BME280;6152;48.728;9.256;2022-09-13T03:10:08;96707.47;;;12.88;100.00
12178;BME280;6152;48.728;9.256;2022-09-13T03:16:14;96699.41;;;12.91;100.00
12178;BME280;6152;48.728;9.256;2022-09-13T03:22:26;96681.59;;;12.96;100.00
12178;BME280;6152;48.728;9.256;2022-09-13T03:30:14;96674.94;;;12.92;100.00
12178;BME280;6152;48.728;9.256;2022-09-13T03:36:00;96664.97;;;12.86;100.00
12178;BME280;6152;48.728;9.256;2022-09-13T03:41:46;96666.75;;;12.74;100.00
12178;BME280;6152;48.728;9.256;2022-09-13T03:44:18;96670.66;;;12.69;100.00
12178;BME280;6152;48.728;9.256;2022-09-13T03:46:48;96683.72;;;12.69;100.00
12178;BME280;6152;48.728;9.256;2022-09-13T03:49:19;96692.94;;;12.61;100.00
12178;BME280;6152;48.728;9.256;2022-09-13T03:51:49;96682.94;;;12.55;100.00
12178;BME280;6152;48.728;9.256;2022-09-13T03:54:23;96674.66;;;12.50;100.00
12178;BME280;6152;48.728;9.256;2022-09-13T03:57:11;96668.69;;;12.48;100.00
12178;BME280;6152;48.728;9.256;2022-09-13T03:59:40;96661.09;;;12.45;100.00
12178;BME280;6152;48.728;9.256;2022-09-13T04:02:08;96664.88;;;12.41;100.00
12178;BME280;6152;48.728;9.256;2022-09-13T04:04:39;96657.19;;;12.40;100.00
12178;BME280;6152;48.728;9.256;2022-09-13T04:07:07;96664.19;;;12.39;100.00
12178;BME280;6152;48.728;9.256;2022-09-13T04:09:33;96668.91;;;12.34;100.00
12178;BME280;6152;48.728;9.256;2022-09-13T04:12:00;96668.19;;;12.32;100.00
12178;BME280;6152;48.728;9.256;2022-09-13T04:14:26;96664.03;;;12.30;100.00
12178;BME280;6152;48.728;9.256;2022-09-13T04:16:54;96655.84;;;12.23;100.00
12178;BME280;6152;48.728;9.256;2022-09-13T04:19:20;96657.72;;;12.21;100.00
12178;BME280;6152;48.728;9.256;2022-09-13T04:21:51;96647.50;;;12.18;100.00
12178;BME280;6152;48.728;9.256;2022-09-13T04:24:18;96648.19;;;12.09;100.00
12178;BME280;6152;48.728;9.256;2022-09-13T04:26:48;96648.31;;;12.07;100.00
12178;BME280;6152;48.728;9.256;2022-09-13T04:29:16;96660.03;;;12.02;100.00
12178;BME280;6152;48.728;9.256;2022-09-13T04:31:46;96660.97;;;12.01;100.00
12178;BME280;6152;48.728;9.256;2022-09-13T04:34:13;96662.03;;;11.98;100.00
12178;BME280;6152;48.728;9.256;2022-09-13T04:36:40;96660.72;;;11.93;100.00
12178;BME280;6152;48.728;9.256;2022-09-13T04:39:06;96673.16;;;11.89;100.00
12178;BME280;6152;48.728;9.256;2022-09-13T04:41:33;96673.56;;;11.83;100.00
12178;BME280;6152;48.728;9.256;2022-09-13T04:44:00;96673.56;;;11.83;100.00
12178;BME280;6152;48.728;9.256;2022-09-13T04:46:26;96678.78;;;11.83;100.00
12178;BME280;6152;48.728;9.256;2022-09-13T04:48:53;96681.28;;;11.85;100.00
12178;BME280;6152;48.728;9.256;2022-09-13T04:51:19;96683.69;;;11.88;100.00
12178;BME280;6152;48.728;9.256;2022-09-13T04:53:50;96680.63;;;11.94;100.00
12178;BME280;6152;48.728;9.256;2022-09-13T04:56:18;96679.13;;;12.02;100.00
12178;BME280;6152;48.728;9.256;2022-09-13T04:58:44;96679.28;;;12.12;100.00
12178;BME280;6152;48.728;9.256;2022-09-13T05:01:10;96680.72;;;12.16;100.00
12178;BME280;6152;48.728;9.256;2022-09-13T05:03:37;96680.25;;;12.22;100.00
12178;BME280;6152;48.728;9.256;2022-09-13T05:06:05;96685.00;;;12.28;100.00
12178;BME280;6152;48.728;9.256;2022-09-13T05:08:32;96683.75;;;12.34;100.00
12178;BME280;6152;48.728;9.256;2022-09-13T05:10:58;96687.44;;;12.42;100.00
12178;BME280;6152;48.728;9.256;2022-09-13T05:13:27;96705.38;;;12.47;100.00
12178;BME280;6152;48.728;9.256;2022-09-13T05:15:57;96700.38;;;12.44;100.00
12178;BME280;6152;48.728;9.256;2022-09-13T05:18:28;96700.00;;;12.48;100.00
12178;BME280;6152;48.728;9.256;2022-09-13T05:20:56;96700.75;;;12.50;100.00
12178;BME280;6152;48.728;9.256;2022-09-13T05:23:23;96702.28;;;12.53;100.00
12178;BME280;6152;48.728;9.256;2022-09-13T05:28:20;96708.22;;;12.55;100.00
12178;BME280;6152;48.728;9.256;2022-09-13T05:30:57;96713.22;;;12.58;100.00
12178;BME280;6152;48.728;9.256;2022-09-13T05:33:24;96716.31;;;12.63;100.00
12178;BME280;6152;48.728;9.256;2022-09-13T05:35:51;96716.91;;;12.66;100.00
12178;BME280;6152;48.728;9.256;2022-09-13T05:38:17;96728.66;;;12.61;100.00
12178;BME280;6152;48.728;9.256;2022-09-13T05:40:43;96719.06;;;12.61;100.00
12178;BME280;6152;48.728;9.256;2022-09-13T05:43:10;96724.38;;;12.60;100.00
12178;BME280;6152;48.728;9.256;2022-09-13T05:45:36;96723.53;;;12.59;100.00
12178;BME280;6152;48.728;9.256;2022-09-13T05:48:02;96728.66;;;12.61;100.00
12178;BME280;6152;48.728;9.256;2022-09-13T05:50:28;96726.06;;;12.61;100.00
12178;BME280;6152;48.728;9.256;2022-09-13T05:52:55;96724.03;;;12.64;100.00
12178;BME280;6152;48.728;9.256;2022-09-13T05:55:22;96730.72;;;12.69;100.00
12178;BME280;6152;48.728;9.256;2022-09-13T05:57:49;96730.47;;;12.72;100.00
12178;BME280;6152;48.728;9.256;2022-09-13T06:00:15;96731.06;;;12.75;100.00
12178;BME280;6152;48.728;9.256;2022-09-13T06:02:42;96723.09;;;12.77;100.00
12178;BME280;6152;48.728;9.256;2022-09-13T06:05:09;96713.75;;;12.85;100.00
12178;BME280;6152;48.728;9.256;2022-09-13T06:07:38;96711.75;;;12.89;100.00
12178;BME280;6152;48.728;9.256;2022-09-13T06:10:04;96710.19;;;12.97;100.00
12178;BME280;6152;48.728;9.256;2022-09-13T06:12:30;96714.59;;;13.08;100.00
12178;BME280;6152;48.728;9.256;2022-09-13T06:14:56;96719.63;;;13.22;100.00
12178;BME280;6152;48.728;9.256;2022-09-13T06:17:22;96731.72;;;13.34;100.00
12178;BME280;6152;48.728;9.256;2022-09-13T06:19:48;96731.03;;;13.54;100.00
12178;BME280;6152;48.728;9.256;2022-09-13T06:22:15;96733.41;;;13.69;100.00
12178;BME280;6152;48.728;9.256;2022-09-13T06:24:41;96738.72;;;13.78;100.00
12178;BME280;6152;48.728;9.256;2022-09-13T06:27:07;96741.88;;;13.93;100.00
12178;BME280;6152;48.728;9.256;2022-09-13T06:29:35;96746.66;;;13.99;100.00
12178;BME280;6152;48.728;9.256;2022-09-13T06:32:02;96743.28;;;14.08;100.00
12178;BME280;6152;48.728;9.256;2022-09-13T06:34:29;96745.78;;;14.09;100.00
12178;BME280;6152;48.728;9.256;2022-09-13T06:36:55;96752.66;;;14.10;100.00
12178;BME280;6152;48.728;9.256;2022-09-13T06:39:21;96741.41;;;14.10;100.00
12178;BME280;6152;48.728;9.256;2022-09-13T06:41:47;96732.81;;;14.08;100.00
12178;BME280;6152;48.728;9.256;2022-09-13T06:44:13;96726.56;;;13.99;100.00
12178;BME280;6152;48.728;9.256;2022-09-13T06:46:40;96734.16;;;14.02;100.00
12178;BME280;6152;48.728;9.256;2022-09-13T06:49:07;96730.94;;;13.99;100.00
12178;BME280;6152;48.728;9.256;2022-09-13T06:51:34;96732.41;;;13.92;100.00
12178;BME280;6152;48.728;9.256;2022-09-13T06:54:01;96731.31;;;13.94;100.00
12178;BME280;6152;48.728;9.256;2022-09-13T06:56:33;96733.69;;;13.97;100.00
12178;BME280;6152;48.728;9.256;2022-09-13T06:59:03;96720.25;;;14.02;100.00
12178;BME280;6152;48.728;9.256;2022-09-13T07:01:34;96731.03;;;14.08;100.00
12178;BME280;6152;48.728;9.256;2022-09-13T07:04:06;96712.34;;;14.13;100.00
12178;BME280;6152;48.728;9.256;2022-09-13T07:06:35;96724.34;;;14.15;100.00
12178;BME280;6152;48.728;9.256;2022-09-13T07:09:05;96710.19;;;14.18;100.00
12178;BME280;6152;48.728;9.256;2022-09-13T07:11:37;96721.44;;;14.30;100.00
12178;BME280;6152;48.728;9.256;2022-09-13T07:14:04;96716.31;;;14.39;100.00
12178;BME280;6152;48.728;9.256;2022-09-13T07:16:33;96718.63;;;14.53;100.00
12178;BME280;6152;48.728;9.256;2022-09-13T07:19:03;96728.22;;;14.64;100.00
12178;BME280;6152;48.728;9.256;2022-09-13T07:21:31;96721.38;;;14.73;100.00
12178;BME280;6152;48.728;9.256;2022-09-13T07:23:58;96727.19;;;14.76;100.00
12178;BME280;6152;48.728;9.256;2022-09-13T07:26:25;96717.03;;;14.83;100.00
12178;BME280;6152;48.728;9.256;2022-09-13T07:28:55;96724.44;;;14.98;100.00
12178;BME280;6152;48.728;9.256;2022-09-13T07:31:23;96721.88;;;15.08;100.00
12178;BME280;6152;48.728;9.256;2022-09-13T07:33:55;96725.81;;;15.23;100.00
12178;BME280;6152;48.728;9.256;2022-09-13T07:36:22;96710.41;;;15.39;100.00
12178;BME280;6152;48.728;9.256;2022-09-13T07:38:49;96704.56;;;15.56;100.00
12178;BME280;6152;48.728;9.256;2022-09-13T07:41:18;96694.56;;;15.81;100.00
12178;BME280;6152;48.728;9.256;2022-09-13T07:43:44;96690.03;;;16.02;100.00
12178;BME280;6152;48.728;9.256;2022-09-13T07:46:18;96705.41;;;16.16;100.00
12178;BME280;6152;48.728;9.256;2022-09-13T07:48:45;96707.91;;;16.27;100.00
12178;BME280;6152;48.728;9.256;2022-09-13T07:51:24;96720.19;;;16.36;100.00
12178;BME280;6152;48.728;9.256;2022-09-13T07:53:51;96725.31;;;16.47;100.00
12178;BME280;6152;48.728;9.256;2022-09-13T07:56:23;96713.53;;;16.51;100.00
12178;BME280;6152;48.728;9.256;2022-09-13T07:58:50;96714.00;;;16.56;100.00
12178;BME280;6152;48.728;9.256;2022-09-13T08:01:19;96709.81;;;16.54;100.00
12178;BME280;6152;48.728;9.256;2022-09-13T08:03:51;96699.59;;;16.60;100.00
12178;BME280;6152;48.728;9.256;2022-09-13T08:06:19;96714.66;;;16.78;100.00
12178;BME280;6152;48.728;9.256;2022-09-13T08:08:46;96720.56;;;16.99;100.00
12178;BME280;6152;48.728;9.256;2022-09-13T08:11:42;96706.09;;;17.22;100.00
12178;BME280;6152;48.728;9.256;2022-09-13T08:14:11;96714.84;;;17.59;100.00
12178;BME280;6152;48.728;9.256;2022-09-13T08:16:38;96700.88;;;18.04;100.00
12178;BME280;6152;48.728;9.256;2022-09-13T08:19:05;96696.25;;;18.51;100.00
12178;BME280;6152;48.728;9.256;2022-09-13T08:21:39;96704.69;;;18.98;100.00
12178;BME280;6152;48.728;9.256;2022-09-13T08:24:07;96703.56;;;19.34;100.00
12178;BME280;6152;48.728;9.256;2022-09-13T08:26:34;96701.34;;;19.81;100.00
12178;BME280;6152;48.728;9.256;2022-09-13T08:29:03;96709.56;;;20.20;100.00
12178;BME280;6152;48.728;9.256;2022-09-13T08:31:30;96713.75;;;20.55;99.20
12178;BME280;6152;48.728;9.256;2022-09-13T08:33:57;96704.66;;;20.65;94.45
12178;BME280;6152;48.728;9.256;2022-09-13T08:36:24;96705.97;;;21.02;93.76
12178;BME280;6152;48.728;9.256;2022-09-13T08:38:52;96699.16;;;21.40;90.31
12178;BME280;6152;48.728;9.256;2022-09-13T08:46:42;96702.03;;;22.08;84.40
12178;BME280;6152;48.728;9.256;2022-09-13T08:49:31;96698.38;;;23.67;76.88
12178;BME280;6152;48.728;9.256;2022-09-13T08:52:27;96693.53;;;25.95;62.24
12178;BME280;6152;48.728;9.256;2022-09-13T08:54:50;96679.91;;;27.76;49.37
12178;BME280;6152;48.728;9.256;2022-09-13T08:57:27;96677.59;;;29.24;44.95
12178;BME280;6152;48.728;9.256;2022-09-13T09:00:33;96660.03;;;29.71;44.32
12178;BME280;6152;48.728;9.256;2022-09-13T09:05:48;96653.22;;;28.83;44.00
12178;BME280;6152;48.728;9.256;2022-09-13T09:08:28;96649.97;;;28.05;44.92
12178;BME280;6152;48.728;9.256;2022-09-13T09:10:58;96651.84;;;27.14;48.11
12178;BME280;6152;48.728;9.256;2022-09-13T09:13:30;96644.03;;;27.32;48.99
12178;BME280;6152;48.728;9.256;2022-09-13T09:16:23;96645.25;;;28.07;47.31
12178;BME280;6152;48.728;9.256;2022-09-13T09:18:52;96640.31;;;29.23;44.61
12178;BME280;6152;48.728;9.256;2022-09-13T09:21:20;96655.78;;;29.64;41.75
12178;BME280;6152;48.728;9.256;2022-09-13T09:23:53;96649.63;;;30.29;41.32
12178;BME280;6152;48.728;9.256;2022-09-13T09:26:24;96648.88;;;29.92;40.96
12178;BME280;6152;48.728;9.256;2022-09-13T09:37:20;96634.63;;;29.74;40.29
12178;BME280;6152;48.728;9.256;2022-09-13T09:39:47;96636.03;;;30.24;39.68
12178;BME280;6152;48.728;9.256;2022-09-13T09:42:16;96642.03;;;31.09;38.42
12178;BME280;6152;48.728;9.256;2022-09-13T09:45:32;96643.00;;;32.58;36.40
12178;BME280;6152;48.728;9.256;2022-09-13T09:47:45;96640.97;;;33.86;34.12
12178;BME280;6152;48.728;9.256;2022-09-13T09:50:23;96630.69;;;34.54;32.99
12178;BME280;6152;48.728;9.256;2022-09-13T09:53:11;96627.94;;;35.49;31.80
12178;BME280;6152;48.728;9.256;2022-09-13T09:58:39;96626.53;;;36.66;29.46
12178;BME280;6152;48.728;9.256;2022-09-13T10:06:38;96648.78;;;36.83;28.58
12178;BME280;6152;48.728;9.256;2022-09-13T10:14:06;96644.91;;;36.33;28.84
12178;BME280;6152;48.728;9.256;2022-09-13T10:19:31;96658.56;;;36.94;27.65
12178;BME280;6152;48.728;9.256;2022-09-13T10:22:01;96651.78;;;38.31;26.89
12178;BME280;6152;48.728;9.256;2022-09-13T10:24:28;96642.88;;;39.90;25.23
12178;BME280;6152;48.728;9.256;2022-09-13T10:26:56;96635.22;;;39.68;24.28
12178;BME280;6152;48.728;9.256;2022-09-13T10:29:24;96634.41;;;39.10;24.58
12178;BME280;6152;48.728;9.256;2022-09-13T10:31:52;96627.56;;;37.66;25.80
12178;BME280;6152;48.728;9.256;2022-09-13T10:34:30;96622.69;;;37.68;25.56
12178;BME280;6152;48.728;9.256;2022-09-13T10:39:33;96622.00;;;40.04;22.35
12178;BME280;6152;48.728;9.256;2022-09-13T10:42:04;96620.22;;;40.74;22.29
12178;BME280;6152;48.728;9.256;2022-09-13T10:44:52;96619.09;;;41.86;21.20
12178;BME280;6152;48.728;9.256;2022-09-13T10:47:28;96609.16;;;43.34;19.93
12178;BME280;6152;48.728;9.256;2022-09-13T10:49:56;96605.06;;;44.58;19.14
12178;BME280;6152;48.728;9.256;2022-09-13T10:55:41;96601.59;;;43.08;18.94
12178;BME280;6152;48.728;9.256;2022-09-13T10:57:44;96607.75;;;44.32;17.39
12178;BME280;6152;48.728;9.256;2022-09-13T11:00:14;96611.97;;;44.38;16.98
12178;BME280;6152;48.728;9.256;2022-09-13T11:08:31;96591.47;;;43.17;16.83
12178;BME280;6152;48.728;9.256;2022-09-13T11:11:03;96586.16;;;43.43;17.17
12178;BME280;6152;48.728;9.256;2022-09-13T11:16:37;96571.25;;;45.09;15.66
12178;BME280;6152;48.728;9.256;2022-09-13T11:25:03;96578.53;;;41.33;18.08
12178;BME280;6152;48.728;9.256;2022-09-13T11:27:56;96572.50;;;40.53;18.28
12178;BME280;6152;48.728;9.256;2022-09-13T11:30:24;96576.50;;;38.66;20.41
12178;BME280;6152;48.728;9.256;2022-09-13T11:35:50;96579.50;;;40.59;18.30
12178;BME280;6152;48.728;9.256;2022-09-13T11:38:35;96586.81;;;41.28;18.06
12178;BME280;6152;48.728;9.256;2022-09-13T11:49:00;96584.81;;;40.51;17.84
12178;BME280;6152;48.728;9.256;2022-09-13T11:51:42;96591.47;;;41.28;16.49
12178;BME280;6152;48.728;9.256;2022-09-13T11:56:46;96583.59;;;39.29;17.29
12178;BME280;6152;48.728;9.256;2022-09-13T11:59:46;96573.63;;;39.67;17.37
12178;BME280;6152;48.728;9.256;2022-09-13T12:02:33;96565.50;;;39.86;17.80
12178;BME280;6152;48.728;9.256;2022-09-13T12:05:20;96565.41;;;40.71;16.60
12178;BME280;6152;48.728;9.256;2022-09-13T12:08:02;96567.91;;;40.49;17.35
12178;BME280;6152;48.728;9.256;2022-09-13T12:13:07;96563.94;;;40.41;17.69
12178;BME280;6152;48.728;9.256;2022-09-13T12:15:40;96559.03;;;40.01;17.95
12178;BME280;6152;48.728;9.256;2022-09-13T12:18:27;96556.34;;;39.53;17.86
12178;BME280;6152;48.728;9.256;2022-09-13T12:20:59;96566.22;;;38.14;19.03
12178;BME280;6152;48.728;9.256;2022-09-13T12:23:36;96563.25;;;37.31;19.57
12178;BME280;6152;48.728;9.256;2022-09-13T12:31:33;96554.31;;;36.44;20.74
12178;BME280;6152;48.728;9.256;2022-09-13T12:34:00;96557.03;;;36.29;21.20
12178;BME280;6152;48.728;9.256;2022-09-13T12:37:06;96552.06;;;35.96;21.41
12178;BME280;6152;48.728;9.256;2022-09-13T12:45:32;96548.25;;;34.56;23.42
12178;BME280;6152;48.728;9.256;2022-09-13T12:48:27;96547.25;;;34.35;23.40
12178;BME280;6152;48.728;9.256;2022-09-13T12:54:04;96527.94;;;32.91;24.35
12178;BME280;6152;48.728;9.256;2022-09-13T13:02:43;96521.84;;;32.18;26.23
12178;BME280;6152;48.728;9.256;2022-09-13T13:05:27;96514.44;;;32.08;24.79
12178;BME280;6152;48.728;9.256;2022-09-13T13:08:01;96512.56;;;31.97;25.51
12178;BME280;6152;48.728;9.256;2022-09-13T13:10:34;96506.09;;;31.81;26.32
12178;BME280;6152;48.728;9.256;2022-09-13T13:13:22;96491.50;;;31.77;26.43
12178;BME280;6152;48.728;9.256;2022-09-13T13:15:56;96495.38;;;31.70;26.30
12178;BME280;6152;48.728;9.256;2022-09-13T13:18:31;96494.84;;;31.44;25.93
12178;BME280;6152;48.728;9.256;2022-09-13T13:21:33;96487.13;;;31.20;23.85
12178;BME280;6152;48.728;9.256;2022-09-13T13:26:52;96485.84;;;30.76;24.34
12178;BME280;6152;48.728;9.256;2022-09-13T13:29:30;96487.03;;;30.68;24.18
12178;BME280;6152;48.728;9.256;2022-09-13T13:40:27;96475.69;;;31.01;25.94
12178;BME280;6152;48.728;9.256;2022-09-13T13:43:15;96483.13;;;31.22;24.94
12178;BME280;6152;48.728;9.256;2022-09-13T13:45:57;96469.66;;;31.34;23.70
12178;BME280;6152;48.728;9.256;2022-09-13T13:48:38;96477.75;;;31.22;24.00
12178;BME280;6152;48.728;9.256;2022-09-13T13:51:15;96462.13;;;30.96;25.55
12178;BME280;6152;48.728;9.256;2022-09-13T13:53:48;96468.19;;;30.80;24.15
12178;BME280;6152;48.728;9.256;2022-09-13T13:56:32;96461.69;;;30.64;23.27
12178;BME280;6152;48.728;9.256;2022-09-13T13:59:26;96458.63;;;30.37;23.43
12178;BME280;6152;48.728;9.256;2022-09-13T14:01:57;96456.38;;;30.11;24.79
12178;BME280;6152;48.728;9.256;2022-09-13T14:04:43;96458.34;;;29.92;23.83
12178;BME280;6152;48.728;9.256;2022-09-13T14:13:15;96458.28;;;30.34;24.77
12178;BME280;6152;48.728;9.256;2022-09-13T14:16:01;96448.09;;;30.36;22.64
12178;BME280;6152;48.728;9.256;2022-09-13T14:21:24;96447.41;;;30.40;22.05
12178;BME280;6152;48.728;9.256;2022-09-13T14:24:22;96456.97;;;30.36;23.10
12178;BME280;6152;48.728;9.256;2022-09-13T14:26:57;96445.63;;;30.34;23.69
12178;BME280;6152;48.728;9.256;2022-09-13T14:29:26;96450.47;;;30.44;24.03
12178;BME280;6152;48.728;9.256;2022-09-13T14:32:02;96443.13;;;30.51;22.76
12178;BME280;6152;48.728;9.256;2022-09-13T14:34:35;96443.91;;;30.51;22.62
12178;BME280;6152;48.728;9.256;2022-09-13T14:37:14;96443.56;;;30.48;21.40
12178;BME280;6152;48.728;9.256;2022-09-13T14:39:54;96443.56;;;30.36;21.85
12178;BME280;6152;48.728;9.256;2022-09-13T14:42:20;96438.06;;;30.31;22.30
12178;BME280;6152;48.728;9.256;2022-09-13T14:44:47;96437.47;;;30.18;22.44
12178;BME280;6152;48.728;9.256;2022-09-13T14:47:29;96435.72;;;30.23;22.97
12178;BME280;6152;48.728;9.256;2022-09-13T14:50:13;96433.38;;;30.15;23.32
12178;BME280;6152;48.728;9.256;2022-09-13T14:52:47;96431.03;;;30.07;23.47
12178;BME280;6152;48.728;9.256;2022-09-13T14:55:21;96431.84;;;29.96;24.45
12178;BME280;6152;48.728;9.256;2022-09-13T14:57:54;96430.53;;;29.87;23.85
12178;BME280;6152;48.728;9.256;2022-09-13T15:00:23;96425.81;;;29.71;24.51
12178;BME280;6152;48.728;9.256;2022-09-13T15:02:54;96417.03;;;29.64;24.28
12178;BME280;6152;48.728;9.256;2022-09-13T15:05:24;96414.66;;;29.55;24.89
12178;BME280;6152;48.728;9.256;2022-09-13T15:07:51;96409.03;;;29.45;25.41
12178;BME280;6152;48.728;9.256;2022-09-13T15:10:19;96402.22;;;29.31;24.55
12178;BME280;6152;48.728;9.256;2022-09-13T15:23:33;96382.84;;;28.63;26.49
12178;BME280;6152;48.728;9.256;2022-09-13T15:26:07;96386.41;;;28.57;26.93
12178;BME280;6152;48.728;9.256;2022-09-13T15:31:21;96379.28;;;28.51;26.79
12178;BME280;6152;48.728;9.256;2022-09-13T15:33:48;96385.75;;;28.43;26.82
12178;BME280;6152;48.728;9.256;2022-09-13T15:36:34;96378.00;;;28.35;27.68
12178;BME280;6152;48.728;9.256;2022-09-13T15:39:18;96377.53;;;28.38;27.00
12178;BME280;6152;48.728;9.256;2022-09-13T15:41:58;96383.94;;;28.19;27.59
12178;BME280;6152;48.728;9.256;2022-09-13T15:44:26;96374.78;;;28.08;28.29
12178;BME280;6152;48.728;9.256;2022-09-13T15:46:58;96377.03;;;28.05;28.50
12178;BME280;6152;48.728;9.256;2022-09-13T15:49:27;96378.38;;;27.96;29.22
12178;BME280;6152;48.728;9.256;2022-09-13T15:52:01;96368.38;;;27.85;29.88
12178;BME280;6152;48.728;9.256;2022-09-13T15:54:36;96358.19;;;27.69;30.74
12178;BME280;6152;48.728;9.256;2022-09-13T15:57:07;96356.50;;;27.49;32.01
12178;BME280;6152;48.728;9.256;2022-09-13T15:59:34;96366.44;;;27.36;32.44
12178;BME280;6152;48.728;9.256;2022-09-13T16:02:01;96365.88;;;27.27;33.14
12178;BME280;6152;48.728;9.256;2022-09-13T16:04:33;96359.59;;;27.15;33.22
12178;BME280;6152;48.728;9.256;2022-09-13T16:06:59;96357.38;;;27.05;33.84
12178;BME280;6152;48.728;9.256;2022-09-13T16:09:25;96342.22;;;26.93;34.13
12178;BME280;6152;48.728;9.256;2022-09-13T16:11:52;96345.19;;;26.78;34.79
12178;BME280;6152;48.728;9.256;2022-09-13T16:14:18;96336.56;;;26.70;35.02
12178;BME280;6152;48.728;9.256;2022-09-13T16:16:45;96332.69;;;26.66;34.93
12178;BME280;6152;48.728;9.256;2022-09-13T16:19:20;96331.72;;;26.53;35.00
12178;BME280;6152;48.728;9.256;2022-09-13T16:21:47;96326.00;;;26.43;35.10
12178;BME280;6152;48.728;9.256;2022-09-13T16:24:14;96333.25;;;26.30;35.63
12178;BME280;6152;48.728;9.256;2022-09-13T16:26:41;96322.59;;;26.23;36.03
12178;BME280;6152;48.728;9.256;2022-09-13T16:29:11;96325.06;;;26.18;36.21
12178;BME280;6152;48.728;9.256;2022-09-13T16:31:37;96331.63;;;26.09;36.40
12178;BME280;6152;48.728;9.256;2022-09-13T16:34:04;96327.72;;;26.05;36.25
12178;BME280;6152;48.728;9.256;2022-09-13T16:36:30;96335.94;;;25.97;36.18